Time;durP1;ratioP1;P1;durP2;ratioP2;P2;SDS_P1;SDS_P2;PMS_P1;PMS_P2;Temp;Humidity;BMP_temperature;BMP_pressure;BME280_temperature;BME280_humidity;BME280_pressure;Samples;Min_cycle;Max_cycle;Signal;HPM_P1;HPM_P2
2022/02/24 00:00:40;;;;;;;5.68;2.95;;;;;;;;;;5071005;28;20025;-54
2022/02/24 00:03:06;;;;;;;6.72;2.83;;;;;;;;;;5061681;28;20041;-54
2022/02/24 00:05:31;;;;;;;14.20;3.67;;;;;;;;;;5064045;28;20033;-52
2022/02/24 00:07:59;;;;;;;5.05;2.65;;;;;;;;;;5059564;28;20028;-55
2022/02/24 00:10:25;;;;;;;5.53;2.80;;;;;;;;;;5064646;28;20130;-53
2022/02/24 00:12:51;;;;;;;5.18;3.47;;;;;;;;;;5068629;28;20476;-49
2022/02/24 00:15:17;;;;;;;5.60;2.70;;;;;;;;;;5071305;28;20025;-49
2022/02/24 00:17:43;;;;;;;6.25;2.53;;;;;;;;;;5069402;28;20085;-53
2022/02/24 00:20:11;;;;;;;10.10;3.28;;;;;;;;;;5070097;28;20016;-49
2022/02/24 00:22:38;;;;;;;6.53;2.42;;;;;;;;;;5056374;28;20020;-51
2022/02/24 00:25:04;;;;;;;10.52;2.70;;;;;;;;;;5058251;28;20174;-48
2022/02/24 00:27:30;;;;;;;7.72;3.25;;;;;;;;;;5063270;28;20021;-53
2022/02/24 00:29:56;;;;;;;4.53;2.33;;;;;;;;;;5056434;28;20066;-49
2022/02/24 00:32:22;;;;;;;6.88;3.50;;;;;;;;;;5059825;28;20370;-49
2022/02/24 00:34:48;;;;;;;9.90;2.88;;;;;;;;;;5056620;28;20021;-54
2022/02/24 00:37:15;;;;;;;5.43;2.75;;;;;;;;;;5067522;28;20070;-52
2022/02/24 00:39:42;;;;;;;8.40;2.80;;;;;;;;;;5064984;28;20459;-54
2022/02/24 00:42:08;;;;;;;6.35;2.45;;;;;;;;;;5066733;28;20396;-55
2022/02/24 00:44:34;;;;;;;11.80;2.95;;;;;;;;;;5072025;28;20037;-49
2022/02/24 00:47:00;;;;;;;3.05;2.45;;;;;;;;;;5061045;28;20024;-49
2022/02/24 00:49:26;;;;;;;9.50;2.65;;;;;;;;;;5062289;28;20027;-49
2022/02/24 00:51:52;;;;;;;8.27;3.50;;;;;;;;;;5069500;28;20062;-51
2022/02/24 00:54:18;;;;;;;8.90;2.80;;;;;;;;;;5067089;28;20496;-49
2022/02/24 00:56:44;;;;;;;8.20;2.38;;;;;;;;;;5062497;28;20399;-49
2022/02/24 00:59:10;;;;;;;10.18;3.92;;;;;;;;;;5074963;28;20473;-50
2022/02/24 01:01:36;;;;;;;8.93;3.00;;;;;;;;;;5065506;28;20032;-50
2022/02/24 01:04:02;;;;;;;4.75;2.35;;;;;;;;;;5067835;28;20028;-49
2022/02/24 01:06:28;;;;;;;8.50;2.70;;;;;;;;;;5069909;28;20028;-49
2022/02/24 01:08:54;;;;;;;9.00;2.70;;;;;;;;;;5066476;28;20017;-49
2022/02/24 01:11:20;;;;;;;8.80;3.10;;;;;;;;;;5069219;28;20040;-52
2022/02/24 01:13:46;;;;;;;8.52;2.38;;;;;;;;;;5068061;28;20748;-54
2022/02/24 01:16:12;;;;;;;13.32;3.28;;;;;;;;;;5068291;28;20033;-55
2022/02/24 01:18:38;;;;;;;5.45;2.78;;;;;;;;;;5060310;28;20032;-51
2022/02/24 01:21:04;;;;;;;5.53;3.00;;;;;;;;;;5070848;28;20482;-49
2022/02/24 01:23:30;;;;;;;11.05;3.60;;;;;;;;;;5065091;28;20040;-49
2022/02/24 01:25:56;;;;;;;8.60;3.00;;;;;;;;;;5070988;28;20028;-50
2022/02/24 01:28:22;;;;;;;8.70;2.78;;;;;;;;;;5063185;28;20384;-49
2022/02/24 01:30:48;;;;;;;12.07;2.60;;;;;;;;;;5072865;28;20025;-50
2022/02/24 01:33:14;;;;;;;6.63;2.60;;;;;;;;;;5067617;28;20456;-53
2022/02/24 01:35:40;;;;;;;7.93;3.22;;;;;;;;;;5064688;28;20027;-51
2022/02/24 01:38:07;;;;;;;9.95;2.75;;;;;;;;;;5061254;28;20028;-49
2022/02/24 01:40:33;;;;;;;8.35;2.95;;;;;;;;;;5071277;28;20029;-49
2022/02/24 01:42:59;;;;;;;9.35;2.90;;;;;;;;;;5070745;28;20033;-49
2022/02/24 01:45:25;;;;;;;6.43;2.75;;;;;;;;;;5072461;28;20040;-53
2022/02/24 01:47:51;;;;;;;8.88;3.45;;;;;;;;;;5061358;28;20106;-51
2022/02/24 01:50:17;;;;;;;11.02;3.00;;;;;;;;;;5070397;28;20453;-52
2022/02/24 01:52:44;;;;;;;10.00;3.42;;;;;;;;;;5063402;28;20087;-50
2022/02/24 01:55:11;;;;;;;7.32;3.33;;;;;;;;;;5064011;28;20036;-54
2022/02/24 01:57:37;;;;;;;9.13;3.22;;;;;;;;;;5064764;28;20104;-49
2022/02/24 02:00:07;;;;;;;9.80;2.75;;;;;;;;;;5064404;28;20025;-49
2022/02/24 02:02:33;;;;;;;10.52;3.25;;;;;;;;;;5060985;28;20406;-49
2022/02/24 02:04:59;;;;;;;9.93;3.40;;;;;;;;;;5066480;28;20040;-49
2022/02/24 02:07:25;;;;;;;7.45;3.03;;;;;;;;;;5071277;28;20035;-50
2022/02/24 02:09:52;;;;;;;7.05;3.10;;;;;;;;;;5060975;28;20026;-50
2022/02/24 02:12:19;;;;;;;8.25;2.78;;;;;;;;;;5072985;28;20121;-49
2022/02/24 02:14:45;;;;;;;6.78;2.67;;;;;;;;;;5074045;28;20032;-50
2022/02/24 02:17:11;;;;;;;15.68;3.08;;;;;;;;;;5063228;28;20449;-52
2022/02/24 02:19:37;;;;;;;11.50;3.55;;;;;;;;;;5062571;28;20428;-49
2022/02/24 02:22:04;;;;;;;14.13;2.83;;;;;;;;;;5059825;28;20058;-49
2022/02/24 02:24:30;;;;;;;9.18;2.88;;;;;;;;;;5066632;28;20058;-55
2022/02/24 02:26:56;;;;;;;6.80;2.90;;;;;;;;;;5059348;28;20025;-51
2022/02/24 02:29:22;;;;;;;9.50;2.50;;;;;;;;;;5072544;28;20128;-49
2022/02/24 02:31:48;;;;;;;14.50;3.97;;;;;;;;;;5072988;28;20085;-52
2022/02/24 02:34:15;;;;;;;7.47;3.20;;;;;;;;;;5071190;28;20078;-50
2022/02/24 02:36:42;;;;;;;9.85;2.72;;;;;;;;;;5062747;28;20043;-50
2022/02/24 02:39:10;;;;;;;11.07;3.20;;;;;;;;;;5065691;28;20028;-53
2022/02/24 02:41:36;;;;;;;10.93;3.13;;;;;;;;;;5073656;28;20028;-49
2022/02/24 02:44:04;;;;;;;7.40;3.05;;;;;;;;;;5073823;28;20111;-49
2022/02/24 02:46:30;;;;;;;8.80;3.90;;;;;;;;;;5066666;28;20025;-49
2022/02/24 02:48:56;;;;;;;12.13;4.22;;;;;;;;;;5073032;28;20032;-55
2022/02/24 02:51:22;;;;;;;7.22;3.25;;;;;;;;;;5073285;28;20028;-53
2022/02/24 02:53:48;;;;;;;8.25;3.30;;;;;;;;;;5073532;28;20033;-52
2022/02/24 02:56:14;;;;;;;10.43;3.53;;;;;;;;;;5065906;28;20071;-51
2022/02/24 02:58:40;;;;;;;9.30;2.80;;;;;;;;;;5069604;28;20100;-49
2022/02/24 03:01:06;;;;;;;8.65;3.13;;;;;;;;;;5063179;28;20568;-54
2022/02/24 03:03:32;;;;;;;9.38;3.28;;;;;;;;;;5073780;28;20048;-54
2022/02/24 03:05:58;;;;;;;7.53;2.45;;;;;;;;;;5066456;28;20063;-52
2022/02/24 03:08:24;;;;;;;14.32;3.08;;;;;;;;;;5073468;28;20032;-51
2022/02/24 03:10:50;;;;;;;9.15;2.97;;;;;;;;;;5073150;28;20021;-50
2022/02/24 03:13:17;;;;;;;9.95;3.00;;;;;;;;;;5073097;28;20421;-49
2022/02/24 03:15:43;;;;;;;10.98;2.97;;;;;;;;;;5072908;28;20480;-51
2022/02/24 03:18:09;;;;;;;7.07;2.85;;;;;;;;;;5070897;28;20028;-49
2022/02/24 03:20:35;;;;;;;5.05;2.55;;;;;;;;;;5072313;28;20104;-49
2022/02/24 03:23:02;;;;;;;9.60;2.58;;;;;;;;;;5068930;28;20040;-49
2022/02/24 03:25:28;;;;;;;12.38;2.28;;;;;;;;;;5066783;28;20464;-49
2022/02/24 03:27:55;;;;;;;4.90;2.30;;;;;;;;;;5061600;28;20048;-48
2022/02/24 03:30:21;;;;;;;7.35;3.17;;;;;;;;;;5073210;28;20020;-50
2022/02/24 03:32:47;;;;;;;8.10;2.78;;;;;;;;;;5072444;28;20027;-54
2022/02/24 03:35:13;;;;;;;7.80;3.17;;;;;;;;;;5063810;28;20033;-55
2022/02/24 03:37:40;;;;;;;10.63;2.63;;;;;;;;;;5056765;28;20079;-50
2022/02/24 03:40:07;;;;;;;10.52;2.85;;;;;;;;;;5066775;28;20028;-53
2022/02/24 03:42:33;;;;;;;5.45;2.70;;;;;;;;;;5072504;28;20031;-53
2022/02/24 03:45:00;;;;;;;9.90;3.42;;;;;;;;;;5072583;28;20020;-53
2022/02/24 03:47:26;;;;;;;4.55;2.58;;;;;;;;;;5057438;28;20112;-49
2022/02/24 03:49:52;;;;;;;10.23;3.10;;;;;;;;;;5063094;28;20091;-54
2022/02/24 03:52:19;;;;;;;7.28;3.05;;;;;;;;;;5071955;28;20385;-54
2022/02/24 03:54:45;;;;;;;6.80;1.92;;;;;;;;;;5064490;28;20108;-50
2022/02/24 03:57:11;;;;;;;6.25;2.47;;;;;;;;;;5068548;28;20028;-53
2022/02/24 03:59:38;;;;;;;3.15;2.10;;;;;;;;;;5066091;28;20362;-49
2022/02/24 04:02:04;;;;;;;5.95;2.40;;;;;;;;;;5069776;28;20081;-49
2022/02/24 04:04:30;;;;;;;7.78;2.40;;;;;;;;;;5071631;28;20104;-49
2022/02/24 04:06:56;;;;;;;12.98;3.60;;;;;;;;;;5064614;28;20476;-49
2022/02/24 04:09:22;;;;;;;5.80;2.30;;;;;;;;;;5072462;28;20035;-49
2022/02/24 04:11:48;;;;;;;10.70;2.65;;;;;;;;;;5070249;28;20032;-49
2022/02/24 04:14:14;;;;;;;3.92;2.58;;;;;;;;;;5072402;28;20394;-52
2022/02/24 04:16:40;;;;;;;4.63;2.05;;;;;;;;;;5065898;28;20027;-51
2022/02/24 04:19:06;;;;;;;4.95;2.67;;;;;;;;;;5072369;28;20100;-53
2022/02/24 04:21:32;;;;;;;7.28;2.17;;;;;;;;;;5071516;28;20037;-53
2022/02/24 04:23:58;;;;;;;11.38;2.72;;;;;;;;;;5072348;28;20049;-51
2022/02/24 04:26:24;;;;;;;3.75;2.00;;;;;;;;;;5060983;28;20058;-54
2022/02/24 04:28:50;;;;;;;11.38;2.45;;;;;;;;;;5065979;28;20465;-49
2022/02/24 04:31:16;;;;;;;6.00;2.08;;;;;;;;;;5071823;28;20035;-49
2022/02/24 04:33:42;;;;;;;7.43;2.88;;;;;;;;;;5070802;28;20063;-51
2022/02/24 04:36:08;;;;;;;4.63;2.38;;;;;;;;;;5057573;28;20338;-52
2022/02/24 04:38:34;;;;;;;4.68;2.45;;;;;;;;;;5066129;28;20028;-49
2022/02/24 04:41:00;;;;;;;4.20;1.90;;;;;;;;;;5070957;28;20029;-48
2022/02/24 04:43:26;;;;;;;8.18;2.22;;;;;;;;;;5071820;28;20035;-48
2022/02/24 04:45:52;;;;;;;5.38;2.35;;;;;;;;;;5069502;28;20036;-48
2022/02/24 04:48:20;;;;;;;7.47;2.22;;;;;;;;;;5071836;28;20397;-49
2022/02/24 04:50:47;;;;;;;7.78;2.10;;;;;;;;;;5072071;28;20025;-53
2022/02/24 04:53:13;;;;;;;4.85;2.45;;;;;;;;;;5071564;28;20176;-50
2022/02/24 04:55:39;;;;;;;13.95;2.40;;;;;;;;;;5060046;28;20124;-51
2022/02/24 04:58:05;;;;;;;7.40;2.50;;;;;;;;;;5066367;28;20501;-53
2022/02/24 05:00:31;;;;;;;7.00;2.67;;;;;;;;;;5071896;28;20034;-51
2022/02/24 05:02:57;;;;;;;6.50;2.50;;;;;;;;;;5070036;28;20025;-52
2022/02/24 05:05:23;;;;;;;8.15;2.25;;;;;;;;;;5063201;28;20040;-51
2022/02/24 05:07:49;;;;;;;8.38;2.47;;;;;;;;;;5065668;28;20043;-50
2022/02/24 05:10:15;;;;;;;7.63;2.55;;;;;;;;;;5067229;28;20505;-50
2022/02/24 05:12:41;;;;;;;6.07;2.50;;;;;;;;;;5067620;28;20116;-50
2022/02/24 05:15:08;;;;;;;9.18;2.03;;;;;;;;;;5063041;28;20028;-52
2022/02/24 05:17:34;;;;;;;10.93;2.70;;;;;;;;;;5057463;28;20071;-50
2022/02/24 05:20:00;;;;;;;3.45;1.73;;;;;;;;;;5071892;28;20523;-48
2022/02/24 05:22:27;;;;;;;6.50;2.28;;;;;;;;;;5071142;28;20021;-50
2022/02/24 05:24:53;;;;;;;8.00;2.25;;;;;;;;;;5068643;28;20043;-48
2022/02/24 05:27:19;;;;;;;9.23;2.60;;;;;;;;;;5067037;28;20028;-55
2022/02/24 05:29:45;;;;;;;3.70;1.90;;;;;;;;;;5072015;28;20025;-54
2022/02/24 05:32:11;;;;;;;5.80;1.90;;;;;;;;;;5068684;28;20074;-50
2022/02/24 05:34:37;;;;;;;4.40;2.55;;;;;;;;;;5077824;28;20100;-53
2022/02/24 05:37:03;;;;;;;5.82;2.45;;;;;;;;;;5071620;28;20082;-50
2022/02/24 05:39:29;;;;;;;9.23;2.25;;;;;;;;;;5071544;28;20025;-50
2022/02/24 05:41:55;;;;;;;7.32;1.92;;;;;;;;;;5067097;28;20039;-48
2022/02/24 05:44:21;;;;;;;4.30;2.20;;;;;;;;;;5063150;28;20028;-49
2022/02/24 05:46:47;;;;;;;5.95;2.20;;;;;;;;;;5072317;28;20082;-49
2022/02/24 05:49:15;;;;;;;10.98;2.45;;;;;;;;;;5075139;28;20388;-50
2022/02/24 05:51:41;;;;;;;3.15;1.73;;;;;;;;;;5072379;28;20039;-50
2022/02/24 05:54:08;;;;;;;9.30;2.58;;;;;;;;;;5062305;28;20021;-49
2022/02/24 05:56:34;;;;;;;10.65;2.75;;;;;;;;;;5067127;28;20135;-53
2022/02/24 05:58:59;;;;;;;4.88;2.10;;;;;;;;;;5072200;28;20029;-51
2022/02/24 06:01:25;;;;;;;9.02;2.40;;;;;;;;;;5068774;28;20040;-52
2022/02/24 06:03:52;;;;;;;3.97;2.33;;;;;;;;;;5066215;28;20443;-53
2022/02/24 06:06:18;;;;;;;4.70;1.95;;;;;;;;;;5070017;28;20024;-53
2022/02/24 06:08:44;;;;;;;5.93;2.20;;;;;;;;;;5063114;28;20362;-49
2022/02/24 06:11:10;;;;;;;4.50;2.20;;;;;;;;;;5062670;28;20516;-54
2022/02/24 06:13:36;;;;;;;5.03;2.20;;;;;;;;;;5071991;28;20025;-53
2022/02/24 06:16:02;;;;;;;6.45;2.38;;;;;;;;;;5068441;28;20027;-52
2022/02/24 06:18:28;;;;;;;7.43;2.00;;;;;;;;;;5061782;28;20031;-49
2022/02/24 06:20:54;;;;;;;6.25;2.30;;;;;;;;;;5066437;28;20542;-49
2022/02/24 06:23:20;;;;;;;6.05;2.05;;;;;;;;;;5070822;28;20029;-49
2022/02/24 06:25:47;;;;;;;6.82;2.08;;;;;;;;;;5068651;28;20085;-48
2022/02/24 06:28:13;;;;;;;9.38;1.67;;;;;;;;;;5072754;28;20411;-49
2022/02/24 06:30:39;;;;;;;6.25;2.10;;;;;;;;;;5074003;28;20110;-49
2022/02/24 06:33:05;;;;;;;8.85;2.45;;;;;;;;;;5077793;28;20357;-49
2022/02/24 06:35:31;;;;;;;5.65;2.17;;;;;;;;;;5074223;28;20031;-49
2022/02/24 06:37:59;;;;;;;7.20;2.20;;;;;;;;;;5073534;28;20398;-53
2022/02/24 06:40:25;;;;;;;4.93;2.13;;;;;;;;;;5073539;28;20056;-53
2022/02/24 06:42:51;;;;;;;4.57;2.38;;;;;;;;;;5071771;28;20369;-52
2022/02/24 06:45:17;;;;;;;7.47;2.30;;;;;;;;;;5066371;28;20028;-53
2022/02/24 06:47:43;;;;;;;6.93;2.50;;;;;;;;;;5058887;28;20021;-48
2022/02/24 06:50:11;;;;;;;8.52;2.55;;;;;;;;;;5070975;28;20028;-51
2022/02/24 06:52:37;;;;;;;9.32;2.53;;;;;;;;;;5064299;28;20453;-52
2022/02/24 06:55:03;;;;;;;6.65;2.15;;;;;;;;;;5059691;28;20559;-51
2022/02/24 06:57:29;;;;;;;8.02;3.08;;;;;;;;;;5062340;28;20158;-49
2022/02/24 06:59:55;;;;;;;4.65;2.25;;;;;;;;;;5057963;28;20025;-49
2022/02/24 07:02:21;;;;;;;7.80;2.30;;;;;;;;;;5064190;28;20033;-51
2022/02/24 07:04:47;;;;;;;6.28;2.72;;;;;;;;;;5071836;28;20025;-48
2022/02/24 07:07:13;;;;;;;5.63;2.75;;;;;;;;;;5066465;28;20025;-49
2022/02/24 07:09:39;;;;;;;10.13;2.53;;;;;;;;;;5068036;28;20482;-49
2022/02/24 07:12:05;;;;;;;11.25;2.30;;;;;;;;;;5071498;28;20093;-51
2022/02/24 07:14:31;;;;;;;7.40;2.67;;;;;;;;;;5072286;28;20027;-52
2022/02/24 07:16:57;;;;;;;6.03;2.47;;;;;;;;;;5071142;28;20027;-51
2022/02/24 07:19:23;;;;;;;6.68;2.10;;;;;;;;;;5068764;28;20427;-55
2022/02/24 07:21:50;;;;;;;8.60;2.00;;;;;;;;;;5071716;28;20108;-50
2022/02/24 07:24:16;;;;;;;9.23;2.78;;;;;;;;;;5069481;28;20025;-51
2022/02/24 07:26:42;;;;;;;4.53;2.13;;;;;;;;;;5062308;28;20108;-51
2022/02/24 07:29:08;;;;;;;3.53;1.85;;;;;;;;;;5067957;28;20070;-49
2022/02/24 07:31:34;;;;;;;6.40;1.67;;;;;;;;;;5067581;28;20374;-49
2022/02/24 07:34:04;;;;;;;4.05;2.17;;;;;;;;;;5063570;28;20029;-49
2022/02/24 07:36:32;;;;;;;12.38;1.90;;;;;;;;;;5055812;28;20167;-48
2022/02/24 07:38:58;;;;;;;3.10;2.10;;;;;;;;;;5068550;28;20016;-50
2022/02/24 07:41:23;;;;;;;4.43;1.58;;;;;;;;;;5066781;28;20122;-48
2022/02/24 07:43:50;;;;;;;9.88;2.00;;;;;;;;;;5063480;28;20036;-48
2022/02/24 07:46:16;;;;;;;3.72;2.20;;;;;;;;;;5072658;28;20040;-49
2022/02/24 07:48:42;;;;;;;4.10;1.70;;;;;;;;;;5072702;28;20020;-51
2022/02/24 07:51:08;;;;;;;8.82;2.22;;;;;;;;;;5063407;28;20119;-51
2022/02/24 07:53:34;;;;;;;5.28;1.85;;;;;;;;;;5058544;28;20043;-52
2022/02/24 07:56:00;;;;;;;5.20;2.15;;;;;;;;;;5072291;28;20044;-50
2022/02/24 07:58:26;;;;;;;2.88;1.60;;;;;;;;;;5069410;28;20025;-50
2022/02/24 08:00:52;;;;;;;4.95;1.85;;;;;;;;;;5058472;28;20437;-49
2022/02/24 08:03:18;;;;;;;6.75;2.28;;;;;;;;;;5062435;28;20424;-49
2022/02/24 08:05:44;;;;;;;6.00;2.00;;;;;;;;;;5072463;28;20025;-49
2022/02/24 08:08:10;;;;;;;7.25;1.88;;;;;;;;;;5072509;28;20047;-48
2022/02/24 08:10:36;;;;;;;2.65;1.88;;;;;;;;;;5065181;28;20566;-52
2022/02/24 08:13:02;;;;;;;4.32;1.90;;;;;;;;;;5068715;28;20029;-50
2022/02/24 08:15:28;;;;;;;8.98;1.85;;;;;;;;;;5072109;28;20480;-51
2022/02/24 08:17:54;;;;;;;7.07;1.88;;;;;;;;;;5068866;28;20017;-49
2022/02/24 08:20:20;;;;;;;6.70;1.95;;;;;;;;;;5064970;28;20031;-49
2022/02/24 08:22:49;;;;;;;8.13;2.10;;;;;;;;;;5070582;28;20471;-50
2022/02/24 08:25:16;;;;;;;6.03;1.73;;;;;;;;;;5072271;28;20460;-51
2022/02/24 08:27:44;;;;;;;5.32;1.52;;;;;;;;;;5072048;28;20445;-51
2022/02/24 08:30:12;;;;;;;5.45;2.00;;;;;;;;;;5075783;28;20426;-50
2022/02/24 08:32:38;;;;;;;6.63;2.08;;;;;;;;;;5070493;28;20388;-49
2022/02/24 08:35:05;;;;;;;5.45;1.88;;;;;;;;;;5071958;28;20436;-49
2022/02/24 08:37:31;;;;;;;4.25;1.90;;;;;;;;;;5071483;28;20421;-52
2022/02/24 08:39:57;;;;;;;3.17;1.58;;;;;;;;;;5070412;28;20861;-49
2022/02/24 08:42:25;;;;;;;7.72;2.28;;;;;;;;;;5070231;28;20040;-49
2022/02/24 08:44:51;;;;;;;6.95;2.40;;;;;;;;;;5067591;28;20115;-50
2022/02/24 08:47:18;;;;;;;6.45;2.30;;;;;;;;;;5071920;28;20587;-49
2022/02/24 08:49:44;;;;;;;3.15;2.05;;;;;;;;;;5072171;28;20028;-50
2022/02/24 08:52:10;;;;;;;6.65;1.85;;;;;;;;;;5071425;28;20111;-49
2022/02/24 08:54:36;;;;;;;4.63;1.70;;;;;;;;;;5071990;28;20043;-49
2022/02/24 08:57:03;;;;;;;12.50;2.55;;;;;;;;;;5069668;28;20052;-49
2022/02/24 08:59:29;;;;;;;4.53;1.95;;;;;;;;;;5071959;28;20020;-53
2022/02/24 09:01:55;;;;;;;6.43;2.00;;;;;;;;;;5071121;28;20058;-49
2022/02/24 09:04:21;;;;;;;7.00;2.58;;;;;;;;;;5064790;28;20078;-50
2022/02/24 09:06:47;;;;;;;6.30;3.15;;;;;;;;;;5069659;28;20056;-53
2022/02/24 09:09:13;;;;;;;4.70;2.20;;;;;;;;;;5069762;28;20032;-49
2022/02/24 09:11:40;;;;;;;4.93;1.98;;;;;;;;;;5069011;28;20030;-51
2022/02/24 09:14:06;;;;;;;1.80;1.45;;;;;;;;;;5081527;28;20024;-49
2022/02/24 09:16:32;;;;;;;5.78;2.05;;;;;;;;;;5071934;28;20025;-50
2022/02/24 09:18:58;;;;;;;4.05;2.38;;;;;;;;;;5075017;28;20021;-49
2022/02/24 09:21:24;;;;;;;4.68;1.55;;;;;;;;;;5075158;28;20545;-49
2022/02/24 09:23:50;;;;;;;3.83;1.83;;;;;;;;;;5075530;28;20492;-49
2022/02/24 09:26:16;;;;;;;8.00;2.10;;;;;;;;;;5078296;28;20020;-49
2022/02/24 09:28:42;;;;;;;4.53;2.10;;;;;;;;;;5064972;28;20431;-49
2022/02/24 09:31:08;;;;;;;3.60;1.70;;;;;;;;;;5074616;28;20036;-49
2022/02/24 09:33:34;;;;;;;5.47;2.50;;;;;;;;;;5075180;28;20464;-49
2022/02/24 09:36:00;;;;;;;4.72;2.10;;;;;;;;;;5075294;28;20094;-49
2022/02/24 09:38:26;;;;;;;3.70;1.60;;;;;;;;;;5075117;28;20025;-54
2022/02/24 09:40:54;;;;;;;3.10;1.40;;;;;;;;;;5074214;28;20032;-54
2022/02/24 09:43:21;;;;;;;4.78;1.60;;;;;;;;;;5074857;28;20537;-51
2022/02/24 09:45:47;;;;;;;7.78;1.85;;;;;;;;;;5064414;28;20032;-49
2022/02/24 09:48:17;;;;;;;6.00;2.13;;;;;;;;;;5075103;28;20036;-50
2022/02/24 09:50:48;;;;;;;4.40;1.40;;;;;;;;;;5058299;28;20040;-49
2022/02/24 09:53:14;;;;;;;3.58;1.35;;;;;;;;;;5069500;28;20020;-53
2022/02/24 09:55:40;;;;;;;3.00;1.33;;;;;;;;;;5074796;28;20045;-52
2022/02/24 09:58:06;;;;;;;6.68;1.58;;;;;;;;;;5073118;28;20029;-49
2022/02/24 10:00:32;;;;;;;7.30;1.77;;;;;;;;;;5074019;28;20053;-49
2022/02/24 10:02:58;;;;;;;7.50;2.00;;;;;;;;;;5075207;28;20031;-50
2022/02/24 10:05:24;;;;;;;7.68;1.85;;;;;;;;;;5067351;28;20387;-49
2022/02/24 10:07:52;;;;;;;6.70;2.38;;;;;;;;;;5062055;28;20025;-49
2022/02/24 10:10:31;;;;;;;8.10;2.72;;;;;;;;;;5074511;28;20067;-49
2022/02/24 10:13:15;;;;;;;2.92;1.85;;;;;;;;;;5074172;28;20468;-49
2022/02/24 10:15:52;;;;;;;5.60;1.60;;;;;;;;;;5070929;28;20027;-51
2022/02/24 10:18:19;;;;;;;10.45;2.05;;;;;;;;;;5066637;28;20050;-49
2022/02/24 10:21:00;;;;;;;3.35;1.70;;;;;;;;;;5064290;28;20047;-50
2022/02/24 10:23:39;;;;;;;5.03;1.70;;;;;;;;;;5072700;28;20024;-49
2022/02/24 10:26:09;;;;;;;5.68;1.80;;;;;;;;;;5072225;28;20116;-50
2022/02/24 10:28:46;;;;;;;6.07;1.58;;;;;;;;;;5068905;28;20032;-50
2022/02/24 10:31:17;;;;;;;4.10;1.85;;;;;;;;;;5058537;28;20025;-49
2022/02/24 10:33:45;;;;;;;6.03;1.55;;;;;;;;;;5070455;28;20040;-53
2022/02/24 10:36:15;;;;;;;3.70;1.77;;;;;;;;;;5072001;28;20036;-53
2022/02/24 10:38:43;;;;;;;10.73;2.33;;;;;;;;;;5062534;28;20078;-53
2022/02/24 10:41:09;;;;;;;7.72;2.10;;;;;;;;;;5072628;28;20021;-49
2022/02/24 10:43:44;;;;;;;6.10;2.00;;;;;;;;;;5069379;28;20064;-52
2022/02/24 10:46:17;;;;;;;3.88;1.85;;;;;;;;;;5074120;28;20035;-53
2022/02/24 10:48:48;;;;;;;3.50;1.70;;;;;;;;;;5065525;28;20094;-51
2022/02/24 10:51:14;;;;;;;3.25;1.80;;;;;;;;;;5069688;28;20548;-49
2022/02/24 10:53:39;;;;;;;4.15;1.73;;;;;;;;;;5069446;28;20029;-50
2022/02/24 10:56:09;;;;;;;2.95;1.50;;;;;;;;;;5062356;28;20490;-49
2022/02/24 10:58:37;;;;;;;3.70;1.50;;;;;;;;;;5073165;28;20040;-50
2022/02/24 11:01:11;;;;;;;8.85;1.85;;;;;;;;;;5063387;28;20029;-52
2022/02/24 11:03:37;;;;;;;4.07;1.40;;;;;;;;;;5067764;28;20025;-50
2022/02/24 11:06:05;;;;;;;5.35;1.70;;;;;;;;;;5071552;28;20169;-49
2022/02/24 11:08:31;;;;;;;4.55;1.83;;;;;;;;;;5071712;28;20442;-50
2022/02/24 11:10:59;;;;;;;4.80;1.52;;;;;;;;;;5063048;28;20048;-50
2022/02/24 11:13:25;;;;;;;6.25;2.35;;;;;;;;;;5068522;28;20029;-49
2022/02/24 11:15:51;;;;;;;5.20;1.80;;;;;;;;;;5070980;28;20074;-49
2022/02/24 11:18:17;;;;;;;4.97;1.52;;;;;;;;;;5064705;28;20021;-49
2022/02/24 11:20:44;;;;;;;5.75;1.63;;;;;;;;;;5066830;28;20120;-54
2022/02/24 11:23:10;;;;;;;4.25;2.35;;;;;;;;;;5066690;28;20033;-51
2022/02/24 11:25:38;;;;;;;4.05;1.73;;;;;;;;;;5060772;28;20430;-51
2022/02/24 11:28:05;;;;;;;5.55;1.88;;;;;;;;;;5059793;28;20149;-51
2022/02/24 11:30:32;;;;;;;4.65;1.73;;;;;;;;;;5070460;28;20029;-51
2022/02/24 11:32:59;;;;;;;3.90;2.00;;;;;;;;;;5068431;28;20033;-49
2022/02/24 11:35:25;;;;;;;5.30;2.28;;;;;;;;;;5067201;28;20099;-48
2022/02/24 11:37:53;;;;;;;6.03;2.20;;;;;;;;;;5070921;28;20021;-49
2022/02/24 11:40:24;;;;;;;5.40;2.30;;;;;;;;;;5070466;28;20535;-48
2022/02/24 11:43:25;;;;;;;7.00;2.30;;;;;;;;;;5064776;28;20017;-49
2022/02/24 11:45:56;;;;;;;5.80;2.40;;;;;;;;;;5030123;28;20112;-50
2022/02/24 11:48:23;;;;;;;5.18;2.15;;;;;;;;;;5055444;28;20455;-49
2022/02/24 11:50:59;;;;;;;4.35;2.30;;;;;;;;;;5067293;28;20024;-50
2022/02/24 11:53:28;;;;;;;6.13;2.72;;;;;;;;;;5070976;28;20032;-49
2022/02/24 11:55:56;;;;;;;9.73;2.60;;;;;;;;;;5058288;28;20048;-49
2022/02/24 11:58:31;;;;;;;5.07;2.03;;;;;;;;;;5063541;28;20103;-49
2022/02/24 12:01:16;;;;;;;4.05;2.30;;;;;;;;;;5070020;28;20028;-49
2022/02/24 12:03:48;;;;;;;4.32;1.52;;;;;;;;;;5057247;28;20029;-49
2022/02/24 12:06:18;;;;;;;4.22;2.13;;;;;;;;;;5065624;28;20055;-50
2022/02/24 12:09:03;;;;;;;8.13;2.35;;;;;;;;;;5069538;28;20166;-49
2022/02/24 12:11:39;;;;;;;5.50;1.98;;;;;;;;;;5068077;28;20119;-54
2022/02/24 12:14:21;;;;;;;5.47;2.10;;;;;;;;;;5060710;28;20031;-49
2022/02/24 12:17:03;;;;;;;5.07;1.58;;;;;;;;;;5061146;28;20052;-49
2022/02/24 12:19:36;;;;;;;6.10;1.90;;;;;;;;;;5064899;28;20032;-50
2022/02/24 12:22:14;;;;;;;5.15;1.75;;;;;;;;;;5071577;28;20039;-50
2022/02/24 12:24:42;;;;;;;3.30;1.88;;;;;;;;;;5059705;28;20490;-49
2022/02/24 12:27:26;;;;;;;8.38;2.10;;;;;;;;;;5058706;28;20049;-49
2022/02/24 12:29:56;;;;;;;6.20;2.13;;;;;;;;;;5055182;28;20503;-49
2022/02/24 12:32:22;;;;;;;6.63;2.13;;;;;;;;;;5065060;28;20032;-50
2022/02/24 12:34:48;;;;;;;5.72;2.03;;;;;;;;;;5067390;28;20028;-50
2022/02/24 12:37:14;;;;;;;2.72;1.17;;;;;;;;;;5054965;28;20115;-50
2022/02/24 12:39:41;;;;;;;5.25;1.65;;;;;;;;;;5064442;28;20500;-49
2022/02/24 12:42:12;;;;;;;5.45;2.17;;;;;;;;;;5051448;28;20029;-49
2022/02/24 12:44:39;;;;;;;5.70;2.30;;;;;;;;;;5059888;28;20033;-49
2022/02/24 12:47:05;;;;;;;6.43;1.65;;;;;;;;;;5069678;28;20081;-51
2022/02/24 12:49:44;;;;;;;3.50;1.63;;;;;;;;;;5070066;28;20571;-53
2022/02/24 12:52:10;;;;;;;3.95;1.38;;;;;;;;;;5061038;28;20127;-54
2022/02/24 12:54:36;;;;;;;4.30;1.90;;;;;;;;;;5073466;28;20068;-51
2022/02/24 12:57:05;;;;;;;8.40;2.25;;;;;;;;;;5069822;28;20025;-51
2022/02/24 12:59:31;;;;;;;3.45;2.00;;;;;;;;;;5057230;28;20457;-50
2022/02/24 13:01:58;;;;;;;3.15;1.63;;;;;;;;;;5073534;28;20039;-53
2022/02/24 13:04:24;;;;;;;6.70;1.73;;;;;;;;;;5074486;28;20032;-55
2022/02/24 13:06:50;;;;;;;3.85;1.20;;;;;;;;;;5070116;28;20028;-49
2022/02/24 13:12:01;;;;;;;6.10;1.42;;;;;;;;;;5065459;28;20032;-52
2022/02/24 13:14:28;;;;;;;7.40;1.60;;;;;;;;;;5063793;28;20032;-51
2022/02/24 13:16:55;;;;;;;3.15;1.40;;;;;;;;;;5073830;28;20032;-49
2022/02/24 13:19:21;;;;;;;3.10;1.20;;;;;;;;;;5075199;28;20025;-50
2022/02/24 13:21:52;;;;;;;5.32;1.67;;;;;;;;;;5075172;28;20090;-51
2022/02/24 13:24:25;;;;;;;7.47;1.20;;;;;;;;;;5071806;28;20039;-51
2022/02/24 13:26:51;;;;;;;2.88;1.40;;;;;;;;;;5065496;28;20032;-50
2022/02/24 13:29:20;;;;;;;5.03;1.20;;;;;;;;;;5066197;28;20025;-51
2022/02/24 13:31:49;;;;;;;6.72;1.40;;;;;;;;;;5067743;28;20032;-52
2022/02/24 13:34:16;;;;;;;5.63;1.55;;;;;;;;;;5073387;28;20111;-49
2022/02/24 13:36:43;;;;;;;3.75;1.77;;;;;;;;;;5067983;28;20158;-51
2022/02/24 13:39:09;;;;;;;5.93;1.70;;;;;;;;;;5075176;28;20024;-55
2022/02/24 13:41:35;;;;;;;6.78;1.45;;;;;;;;;;5068455;28;20372;-54
2022/02/24 13:44:01;;;;;;;2.80;1.08;;;;;;;;;;5063649;28;20029;-52
2022/02/24 13:46:54;;;;;;;3.90;1.63;;;;;;;;;;5067757;28;20060;-54
2022/02/24 13:49:20;;;;;;;3.77;2.27;;;;;;;;;;5043437;28;20043;-52
2022/02/24 13:51:46;;;;;;;4.03;1.50;;;;;;;;;;5070816;28;20750;-50
2022/02/24 13:54:24;;;;;;;8.15;1.50;;;;;;;;;;5074669;28;20448;-53
2022/02/24 13:56:51;;;;;;;2.78;1.10;;;;;;;;;;5074368;28;20767;-54
2022/02/24 13:59:23;;;;;;;3.13;1.20;;;;;;;;;;5073232;28;20056;-51
2022/02/24 14:01:53;;;;;;;5.03;1.30;;;;;;;;;;5062038;28;20029;-54
2022/02/24 14:04:22;;;;;;;5.82;1.77;;;;;;;;;;5072374;28;20024;-55
2022/02/24 14:06:48;;;;;;;2.50;1.20;;;;;;;;;;5065555;28;20028;-50
2022/02/24 14:09:25;;;;;;;3.97;1.20;;;;;;;;;;5073708;28;20482;-52
2022/02/24 14:11:51;;;;;;;3.45;1.73;;;;;;;;;;5061254;28;20021;-49
2022/02/24 14:14:19;;;;;;;7.40;1.45;;;;;;;;;;5059857;28;20033;-51
2022/02/24 14:16:46;;;;;;;5.00;1.15;;;;;;;;;;5071112;28;20020;-53
2022/02/24 14:19:13;;;;;;;4.50;1.30;;;;;;;;;;5066574;28;20025;-51
2022/02/24 14:21:39;;;;;;;2.85;1.30;;;;;;;;;;5063954;28;20107;-53
2022/02/24 14:24:05;;;;;;;4.57;1.23;;;;;;;;;;5071013;28;20111;-49
2022/02/24 14:26:31;;;;;;;3.67;1.38;;;;;;;;;;5073692;28;20108;-50
2022/02/24 14:28:57;;;;;;;3.03;1.63;;;;;;;;;;5072975;28;20097;-52
2022/02/24 14:31:24;;;;;;;1.63;1.10;;;;;;;;;;5065972;28;20226;-52
2022/02/24 14:33:50;;;;;;;2.20;1.10;;;;;;;;;;5070663;28;20016;-53
2022/02/24 14:36:17;;;;;;;4.10;1.42;;;;;;;;;;5056532;28;20029;-50
2022/02/24 14:38:43;;;;;;;7.10;1.30;;;;;;;;;;5061259;28;20032;-49
2022/02/24 14:41:09;;;;;;;4.07;1.48;;;;;;;;;;5071074;28;20033;-52
2022/02/24 14:43:36;;;;;;;3.15;1.10;;;;;;;;;;5069370;28;20433;-49